Historyczne dane pomiarowe

Dodano dane terminowe – wersja testowa.

Dane z okresu 1951-2019

Wersja bazy: 1.34 [2019-03-16, lista zmian], aktualizacja planowana na 2019-04-15

Dane meteo z obszaru Polski uzyskane na podstawie danych udostępnionych przez Instytut Meteorologii i Gospodarki Wodnej – Państwowy Instytut Badawczy.

 

Wybierz Datę:    

       

TemperaturaWilgotnośćZachmurzenieWiatrCiśnienieWidzialnośćZjawiska
 Data    tng td wb rh cc ccl cl cm ch dir g1 g2 mslp ppp      
1999-08-06 00:00:00 20.8--- 14.9 17.169wxwxwxwx3wx--1013.1 989.2 0.0---wx
1999-08-06 01:00:00 20.1--- 15.0 16.972wxwxwxwx2wx--1013.0 989.0----wx
1999-08-06 02:00:00 19.6--- 15.6 17.178wxwxwxwx3wx--1012.6 988.6----wx
1999-08-06 03:00:00 18.8--- 15.3 16.680wxwxwxwx3wx--1012.4 988.3----wxw1
1999-08-06 04:00:00 17.0--- 14.6 15.586wxwxwxwx0wx--1012.4 988.2----wx
1999-08-06 05:00:00 18.2--- 16.1 16.988wxwxwxwxwx0wx--1012.3 988.2----wx
1999-08-06 06:00:00 20.2--- 16.6 17.980wxwxwxwx1wx--1012.5 988.5 0.0---wxw1
1999-08-06 07:00:00 22.9--- 16.4 18.767wxwxwxwx4wx--1012.0 988.3----wx
1999-08-06 08:00:00 24.2--- 16.5 19.262wxwxwx2wx--1012.0 988.4----wx
1999-08-06 09:00:00 25.2--- 17.0 19.860wxwxwxwx1wx--1011.8 988.3----wx
1999-08-06 10:00:00 26.2--- 16.8 20.056wxwxwxwx2wx--1011.4 987.9----wx
1999-08-06 11:00:00 26.2--- 15.7 19.452wxwxwx2wx--1011.1 987.6----wx
1999-08-06 12:00:00 26.4--- 15.9 19.653wxwxwx2wx--1010.7 987.3 0.0---wx
1999-08-06 13:00:00 25.2--- 17.3 20.062wxwxwx3wx--1010.8 987.3----wx
1999-08-06 14:00:00 25.0--- 17.8 20.264wxwxwx3wx--1010.7 987.2----wx
1999-08-06 15:00:00 26.6--- 16.2 19.853wxwxwx4wx--1010.1 986.7----wxw1
1999-08-06 16:00:00 26.6--- 14.5 18.947wxwxwxwx3wx--1010.2 986.8----wx
1999-08-06 17:00:00 26.4--- 14.0 18.647wxwxwxwx4wx--1010.0 986.6----wx
1999-08-06 18:00:00 24.0--- 14.3 17.955wxwxwxwxwx2wx--1010.0 986.4 0.0---wxw1
1999-08-06 19:00:00 21.2--- 17.0 18.577wxwxwxwx1wx--1010.3 986.5----wx
1999-08-06 20:00:00 19.2--- 15.0 16.677wxwxwx1wx--1010.8 986.8----wx
1999-08-06 21:00:00 17.8--- 15.6 16.487wxwx1wx--1011.0 986.9----wx
1999-08-06 22:00:00 16.6--- 14.1 15.185wxwx1wx--1011.1 986.9----wx
1999-08-06 23:00:00 16.0--- 13.8 14.787wxwx1wx--1011.2 986.9----wx

 

Źródłem pochodzenia danych jest Instytut Meteorologii i Gospodarki Wodnej – Państwowy Instytut Badawczy. Dane Instytutu Meteorologii i Gospodarki Wodnej – Państwowego Instytutu Badawczego zostały przetworzone.

Dane źródłowe można odnaleźć na stronie https://dane.imgw.pl